K35 EFOU-EFOU

Flight info

Callsign K35
Flight time 0h 9m
Altitude 1000
Route TC
Aircraft G115/L-SDGR/C

Departure

Time 2026-04-30 20:13
Airport Oulu Airport (EFOU)

Arrival

Time 2026-04-30 20:23
Airport Oulu Airport (EFOU)
Time Latitude Longitude Altitude Speed Heading
2026-04-30 20:07 64.93132 25.36443 45 ft 0 kts 336°
2026-04-30 20:10 64.93129 25.36413 45 ft 9 kts 224°
2026-04-30 20:11 64.93015 25.36224 46 ft 12 kts 148°
2026-04-30 20:11 64.92975 25.36365 46 ft 10 kts 124°
2026-04-30 20:11 64.92919 25.36518 48 ft 8 kts 169°
2026-04-30 20:12 64.92809 25.36278 48 ft 15 kts 290°
2026-04-30 20:12 64.92891 25.35956 49 ft 54 kts 301°
2026-04-30 20:12 64.93171 25.34947 117 ft 85 kts 297°
2026-04-30 20:13 64.93451 25.33773 334 ft 80 kts 291°
2026-04-30 20:13 64.93632 25.32594 603 ft 76 kts 273°
2026-04-30 20:13 64.93269 25.31767 762 ft 89 kts 202°
2026-04-30 20:13 64.92568 25.32931 857 ft 117 kts 128°
2026-04-30 20:14 64.92031 25.34489 903 ft 123 kts 135°
2026-04-30 20:14 64.91652 25.35526 949 ft 114 kts 128°
2026-04-30 20:14 64.91303 25.37090 917 ft 109 kts 118°
2026-04-30 20:14 64.91398 25.38424 816 ft 84 kts 34°
2026-04-30 20:15 64.91959 25.38928 467 ft 88 kts 345°
2026-04-30 20:15 64.92375 25.38009 110 ft 82 kts 295°
2026-04-30 20:15 64.92622 25.37032 46 ft 59 kts 300°
2026-04-30 20:15 64.92874 25.36080 179 ft 74 kts 293°
2026-04-30 20:16 64.93148 25.34971 368 ft 82 kts 294°
2026-04-30 20:16 64.93423 25.33803 581 ft 84 kts 294°
2026-04-30 20:16 64.93581 25.32542 839 ft 82 kts 256°
2026-04-30 20:16 64.93115 25.31791 1007 ft 97 kts 182°
2026-04-30 20:17 64.92538 25.32870 982 ft 125 kts 122°
2026-04-30 20:17 64.92106 25.34712 854 ft 129 kts 120°
2026-04-30 20:17 64.91701 25.36603 850 ft 129 kts 113°
2026-04-30 20:17 64.91721 25.38367 660 ft 100 kts 57°
2026-04-30 20:18 64.92255 25.38442 257 ft 86 kts 309°
2026-04-30 20:18 64.92535 25.37360 42 ft 63 kts 303°
2026-04-30 20:18 64.92780 25.36415 84 ft 77 kts 296°
2026-04-30 20:18 64.93083 25.35240 217 ft 89 kts 296°
2026-04-30 20:19 64.93348 25.34104 508 ft 81 kts 296°
2026-04-30 20:19 64.93598 25.32909 751 ft 79 kts 266°
2026-04-30 20:19 64.93198 25.32038 896 ft 97 kts 190°
2026-04-30 20:19 64.92606 25.32934 1007 ft 116 kts 125°
2026-04-30 20:20 64.92138 25.34640 893 ft 126 kts 125°
2026-04-30 20:20 64.91699 25.36422 989 ft 126 kts 94°
2026-04-30 20:20 64.92217 25.37896 440 ft 127 kts 359°
2026-04-30 20:20 64.92754 25.36574 150 ft 109 kts 298°
2026-04-30 20:21 64.93163 25.34899 107 ft 122 kts 299°
2026-04-30 20:21 64.93602 25.33166 202 ft 117 kts 297°
2026-04-30 20:21 64.93531 25.31590 464 ft 106 kts 217°
2026-04-30 20:21 64.92847 25.31919 636 ft 114 kts 135°
2026-04-30 20:22 64.92389 25.33364 886 ft 107 kts 126°
2026-04-30 20:22 64.92046 25.34850 1085 ft 95 kts 121°
2026-04-30 20:22 64.91838 25.36263 891 ft 96 kts 96°
2026-04-30 20:22 64.92018 25.37725 554 ft 102 kts 34°
2026-04-30 20:23 64.92538 25.37368 71 ft 83 kts 297°
2026-04-30 20:23 64.92755 25.36495 47 ft 31 kts 303°
2026-04-30 20:23 64.92829 25.36424 47 ft 11 kts 26°
2026-04-30 20:23 64.92890 25.36504 48 ft 8 kts 36°
2026-04-30 20:24 64.92959 25.36429 47 ft 23 kts 305°
2026-04-30 20:24 64.93023 25.36188 46 ft 13 kts 313°
2026-04-30 20:24 64.93081 25.36312 46 ft 31 kts 62°
2026-04-30 20:24 64.93165 25.36668 45 ft 20 kts 56°